Time;durP1;ratioP1;P1;durP2;ratioP2;P2;SDS_P1;SDS_P2;PMS_P1;PMS_P2;Temp;Humidity;BMP_temperature;BMP_pressure;BME280_temperature;BME280_humidity;BME280_pressure;Samples;Min_cycle;Max_cycle;Signal;HPM_P1;HPM_P2
2023/02/18 00:01:33;;;;;;;7.32;4.43;;;11.00;99.90;;;;;;5065887;28;20376;-67
2023/02/18 00:04:00;;;;;;;6.38;4.57;;;11.00;99.90;;;;;;5059987;28;20449;-69
2023/02/18 00:06:30;;;;;;;6.63;4.63;;;11.00;99.90;;;;;;5066688;28;20052;-67
2023/02/18 00:09:01;;;;;;;6.93;4.20;;;11.00;99.90;;;;;;5060074;28;20045;-67
2023/02/18 00:11:31;;;;;;;8.65;4.43;;;11.00;99.90;;;;;;5047505;28;20045;-70
2023/02/18 00:14:00;;;;;;;6.30;4.50;;;11.10;99.90;;;;;;5044095;28;20052;-67
2023/02/18 00:16:29;;;;;;;7.20;4.40;;;11.10;99.90;;;;;;5047062;28;20370;-67
2023/02/18 00:19:01;;;;;;;6.55;4.90;;;11.10;99.90;;;;;;5049443;28;20068;-65
2023/02/18 00:21:31;;;;;;;6.30;4.65;;;11.00;99.90;;;;;;5030555;28;20045;-66
2023/02/18 00:23:58;;;;;;;7.30;5.05;;;11.00;99.90;;;;;;5042112;28;20376;-66
2023/02/18 00:26:26;;;;;;;6.75;4.68;;;10.90;99.90;;;;;;5047520;28;20108;-66
2023/02/18 00:28:54;;;;;;;8.27;4.80;;;11.00;99.90;;;;;;5044284;28;20120;-66
2023/02/18 00:31:27;;;;;;;5.78;4.10;;;11.00;99.90;;;;;;5047530;28;20075;-66
2023/02/18 00:33:56;;;;;;;7.05;4.57;;;11.00;99.90;;;;;;5051182;28;20534;-65
2023/02/18 00:36:25;;;;;;;7.07;5.03;;;11.00;99.90;;;;;;5050005;28;20037;-66
2023/02/18 00:38:58;;;;;;;7.07;4.95;;;11.10;99.90;;;;;;5034114;28;20475;-66
2023/02/18 00:41:27;;;;;;;7.30;4.88;;;11.10;99.90;;;;;;5028199;28;20397;-66
2023/02/18 00:43:55;;;;;;;6.78;4.97;;;11.00;99.90;;;;;;5047549;28;20527;-68
2023/02/18 00:46:24;;;;;;;6.95;5.07;;;11.00;99.90;;;;;;5047546;28;20056;-68
2023/02/18 00:48:53;;;;;;;7.30;5.15;;;11.00;99.90;;;;;;5046053;28;20044;-67
2023/02/18 00:51:22;;;;;;;6.47;4.78;;;11.00;99.90;;;;;;5065593;28;20158;-67
2023/02/18 00:53:50;;;;;;;7.03;5.05;;;11.10;99.90;;;;;;5043136;28;20113;-68
2023/02/18 00:56:18;;;;;;;7.68;5.60;;;11.10;99.90;;;;;;5029904;28;20043;-66
2023/02/18 00:58:45;;;;;;;7.93;5.28;;;11.10;99.90;;;;;;5034475;28;20037;-67
2023/02/18 01:01:13;;;;;;;7.50;5.07;;;11.10;99.90;;;;;;5042457;28;20045;-68
2023/02/18 01:03:41;;;;;;;7.00;5.13;;;11.10;99.90;;;;;;5028823;28;20088;-67
2023/02/18 01:06:10;;;;;;;7.25;4.93;;;11.10;99.90;;;;;;5029922;28;20056;-68
2023/02/18 01:08:39;;;;;;;6.28;4.68;;;11.10;99.90;;;;;;5028277;28;20034;-66
2023/02/18 01:11:08;;;;;;;6.75;5.07;;;11.10;99.90;;;;;;5030642;28;20068;-67
2023/02/18 01:13:36;;;;;;;7.18;4.80;;;11.10;99.90;;;;;;5040649;28;20492;-69
2023/02/18 01:16:05;;;;;;;7.70;5.13;;;11.00;99.90;;;;;;5027910;28;20037;-67
2023/02/18 01:18:35;;;;;;;7.47;5.30;;;11.00;99.90;;;;;;5031101;28;20036;-67
2023/02/18 01:21:07;;;;;;;6.55;4.63;;;11.00;99.90;;;;;;5065333;28;20037;-68
2023/02/18 01:23:40;;;;;;;8.68;5.20;;;10.90;99.90;;;;;;5062552;28;20813;-66
2023/02/18 01:26:09;;;;;;;7.47;5.18;;;10.70;99.90;;;;;;5049547;28;20045;-67
2023/02/18 01:28:38;;;;;;;8.23;5.03;;;10.70;99.90;;;;;;5047012;28;20033;-65
2023/02/18 01:31:08;;;;;;;8.30;4.80;;;10.60;99.90;;;;;;5041306;28;20107;-68
2023/02/18 01:33:36;;;;;;;6.78;4.78;;;10.60;99.90;;;;;;5045998;28;20049;-66
2023/02/18 01:36:04;;;;;;;6.72;5.03;;;10.60;99.90;;;;;;5047421;28;20103;-67
2023/02/18 01:38:32;;;;;;;7.35;5.30;;;10.60;99.90;;;;;;5047362;28;20080;-66
2023/02/18 01:41:00;;;;;;;7.03;4.10;;;10.50;99.90;;;;;;5049032;28;20435;-67
2023/02/18 01:43:28;;;;;;;6.95;4.93;;;10.50;99.90;;;;;;5047723;28;20106;-66
2023/02/18 01:46:04;;;;;;;7.20;4.95;;;10.50;99.90;;;;;;5065693;28;20045;-68
2023/02/18 01:48:38;;;;;;;8.50;5.40;;;10.40;99.90;;;;;;5055460;28;20080;-67
2023/02/18 01:51:30;;;;;;;7.38;5.45;;;10.40;99.90;;;;;;5033532;28;20490;-66
2023/02/18 01:54:03;;;;;;;6.72;5.05;;;10.40;99.90;;;;;;5050977;28;20549;-69
2023/02/18 01:56:36;;;;;;;7.65;5.05;;;10.30;99.90;;;;;;5053290;28;20472;-68
2023/02/18 01:59:13;;;;;;;7.88;5.15;;;10.30;99.90;;;;;;5050344;28;20048;-67
2023/02/18 02:01:43;;;;;;;8.18;4.88;;;10.30;99.90;;;;;;5052147;28;20056;-67
2023/02/18 02:04:11;;;;;;;7.25;5.20;;;10.20;99.90;;;;;;5067770;28;20055;-67
2023/02/18 02:06:41;;;;;;;6.95;5.18;;;10.30;99.90;;;;;;5050223;28;20041;-67
2023/02/18 02:09:12;;;;;;;6.88;4.72;;;10.30;99.90;;;;;;5052440;28;20041;-67
2023/02/18 02:12:04;;;;;;;5.93;4.30;;;10.30;99.90;;;;;;5036167;28;20048;-68
2023/02/18 02:14:57;;;;;;;;;;;10.20;99.90;;;;;;5051947;28;20064;-67
2023/02/18 02:17:32;;;;;;;6.68;4.45;;;10.30;99.90;;;;;;5053451;28;19928;-67
2023/02/18 02:20:37;;;;;;;9.45;5.18;;;10.30;99.90;;;;;;5034125;28;20425;-65
2023/02/18 02:23:11;;;;;;;9.63;4.88;;;10.30;99.90;;;;;;5043816;28;20499;-66
2023/02/18 02:25:50;;;;;;;7.03;4.70;;;10.30;99.90;;;;;;5031920;28;20411;-65
2023/02/18 02:28:48;;;;;;;8.18;5.00;;;10.30;99.90;;;;;;5030190;28;20045;-66
2023/02/18 02:31:33;;;;;;;7.70;4.80;;;10.30;99.90;;;;;;5034181;28;20128;-65
2023/02/18 02:34:58;;;;;;;8.00;4.82;;;10.30;99.90;;;;;;5064905;28;20053;-66
2023/02/18 02:38:01;;;;;;;7.00;4.50;;;10.20;99.90;;;;;;4989270;28;20133;-66
2023/02/18 02:40:33;;;;;;;9.45;4.65;;;10.20;99.90;;;;;;4897699;29;20040;-66
2023/02/18 02:43:00;;;;;;;7.63;4.72;;;10.20;99.90;;;;;;4896692;29;20067;-66
2023/02/18 02:46:01;;;;;;;7.03;4.75;;;10.20;99.90;;;;;;4894573;29;20123;-65
2023/02/18 02:48:36;;;;;;;6.55;4.45;;;10.30;99.90;;;;;;4897210;29;20163;-67
2023/02/18 02:51:20;;;;;;;6.10;4.10;;;10.30;99.90;;;;;;4913427;29;20531;-66
2023/02/18 02:53:48;;;;;;;6.85;3.85;;;10.30;99.90;;;;;;4911384;29;20052;-68
2023/02/18 02:56:18;;;;;;;6.45;3.90;;;10.40;99.90;;;;;;4901898;29;20051;-67
2023/02/18 02:58:59;;;;;;;5.80;3.80;;;10.40;99.90;;;;;;4899888;29;20123;-66
2023/02/18 03:01:49;;;;;;;6.57;3.60;;;10.50;99.90;;;;;;4881899;29;20535;-66
2023/02/18 03:04:26;;;;;;;6.28;3.65;;;10.50;99.90;;;;;;4897947;29;20082;-67
2023/02/18 03:07:09;;;;;;;8.05;3.75;;;10.60;99.90;;;;;;4907633;28;20054;-67
2023/02/18 03:09:54;;;;;;;5.45;3.10;;;10.60;99.90;;;;;;4989706;28;20217;-68
2023/02/18 03:12:53;;;;;;;5.43;3.17;;;10.60;99.90;;;;;;4989083;28;20061;-66
2023/02/18 03:15:28;;;;;;;5.25;3.22;;;10.70;99.90;;;;;;4985355;28;20080;-68
2023/02/18 03:18:13;;;;;;;4.93;2.92;;;10.70;99.90;;;;;;5051321;28;20105;-67
2023/02/18 03:20:57;;;;;;;6.00;3.33;;;10.70;99.90;;;;;;5050186;28;20495;-67
2023/02/18 03:23:31;;;;;;;4.75;3.00;;;10.70;99.90;;;;;;5049282;28;20090;-66
2023/02/18 03:25:59;;;;;;;4.75;2.90;;;10.70;99.90;;;;;;5034021;28;20086;-66
2023/02/18 03:28:31;;;;;;;4.47;2.97;;;10.70;99.90;;;;;;5066635;28;20063;-67
2023/02/18 03:31:14;;;;;;;4.25;2.78;;;10.80;99.90;;;;;;5055791;28;20124;-65
2023/02/18 03:33:54;;;;;;;7.00;3.00;;;10.80;99.90;;;;;;5049574;28;20056;-66
2023/02/18 03:36:23;;;;;;;4.18;2.70;;;10.80;99.90;;;;;;5030661;28;20694;-65
2023/02/18 03:39:04;;;;;;;3.97;2.47;;;10.80;99.90;;;;;;5046778;28;20040;-66
2023/02/18 03:41:32;;;;;;;6.18;2.75;;;10.80;99.90;;;;;;5029571;28;20401;-67
2023/02/18 03:44:03;;;;;;;4.00;2.50;;;10.80;99.90;;;;;;5048741;28;20120;-67
2023/02/18 03:46:31;;;;;;;4.15;2.50;;;10.80;99.90;;;;;;5065345;28;20036;-67
2023/02/18 03:48:58;;;;;;;4.25;2.50;;;10.80;99.90;;;;;;5048683;28;20553;-68
2023/02/18 03:51:26;;;;;;;4.28;2.97;;;10.90;99.90;;;;;;5046567;28;20191;-68
2023/02/18 03:53:53;;;;;;;5.05;2.50;;;10.90;99.90;;;;;;5036298;28;20038;-67
2023/02/18 03:56:21;;;;;;;4.35;2.75;;;10.90;99.90;;;;;;5030981;28;20103;-67
2023/02/18 03:58:49;;;;;;;3.60;2.33;;;10.90;99.90;;;;;;5035700;28;20136;-66
2023/02/18 04:01:16;;;;;;;4.45;2.63;;;10.80;99.90;;;;;;5030517;28;20052;-67
2023/02/18 04:03:43;;;;;;;4.43;2.60;;;10.90;99.90;;;;;;5029451;28;20041;-68
2023/02/18 04:06:10;;;;;;;3.30;2.10;;;10.90;99.90;;;;;;5030889;28;20065;-65
2023/02/18 04:08:38;;;;;;;3.90;2.35;;;10.80;99.90;;;;;;5030365;28;20403;-65
2023/02/18 04:11:05;;;;;;;6.35;3.25;;;10.80;99.90;;;;;;5030501;28;20045;-65
2023/02/18 04:13:32;;;;;;;5.95;3.05;;;10.80;99.90;;;;;;5046378;28;20483;-66
2023/02/18 04:16:00;;;;;;;6.05;2.95;;;10.80;99.90;;;;;;5037657;28;20041;-66
2023/02/18 04:18:27;;;;;;;5.00;3.40;;;10.70;99.90;;;;;;5049225;28;20364;-66
2023/02/18 04:20:54;;;;;;;5.88;3.50;;;10.70;99.90;;;;;;5032242;28;20576;-65
2023/02/18 04:23:22;;;;;;;5.22;3.53;;;10.70;99.90;;;;;;5030186;28;20346;-65
2023/02/18 04:25:49;;;;;;;5.10;3.40;;;10.70;99.90;;;;;;5041711;28;20029;-65
2023/02/18 04:28:16;;;;;;;7.45;3.40;;;10.60;99.90;;;;;;5047930;28;20047;-66
2023/02/18 04:30:45;;;;;;;8.85;3.72;;;10.60;99.90;;;;;;5048508;28;20087;-67
2023/02/18 04:33:13;;;;;;;5.65;3.70;;;10.60;99.90;;;;;;5043889;28;20059;-66
2023/02/18 04:35:40;;;;;;;7.03;4.40;;;10.70;99.90;;;;;;5029351;28;20045;-65
2023/02/18 04:38:10;;;;;;;5.65;3.83;;;10.70;99.90;;;;;;5029828;28;20041;-65
2023/02/18 04:40:37;;;;;;;6.50;4.47;;;10.60;99.90;;;;;;5029788;28;20499;-65
2023/02/18 04:43:04;;;;;;;7.22;4.30;;;10.70;99.90;;;;;;5030315;28;20041;-66
2023/02/18 04:45:32;;;;;;;8.63;4.30;;;10.70;99.90;;;;;;5030355;28;20403;-66
2023/02/18 04:47:59;;;;;;;6.32;4.13;;;10.70;99.90;;;;;;5029619;28;20427;-67
2023/02/18 04:50:26;;;;;;;6.32;4.20;;;10.70;99.90;;;;;;5035707;28;20041;-66
2023/02/18 04:52:54;;;;;;;6.30;4.03;;;10.70;99.90;;;;;;5039151;28;20037;-65
2023/02/18 04:55:21;;;;;;;5.90;3.75;;;10.70;99.90;;;;;;5031869;28;20052;-66
2023/02/18 04:57:48;;;;;;;6.85;4.32;;;10.80;99.90;;;;;;5047162;28;20072;-67
2023/02/18 05:00:18;;;;;;;5.93;4.28;;;10.80;99.90;;;;;;5048726;28;20260;-66
2023/02/18 05:02:46;;;;;;;6.80;3.85;;;10.70;99.90;;;;;;5046970;28;20119;-66
2023/02/18 05:05:14;;;;;;;5.68;3.70;;;10.70;99.90;;;;;;5050913;28;20045;-65
2023/02/18 05:07:41;;;;;;;6.03;4.13;;;10.70;99.90;;;;;;5053650;28;20033;-66
2023/02/18 05:10:10;;;;;;;8.13;4.30;;;10.70;99.90;;;;;;5039456;28;20487;-67
2023/02/18 05:12:37;;;;;;;6.70;4.05;;;10.80;99.90;;;;;;5045299;28;20056;-67
2023/02/18 05:15:05;;;;;;;6.07;4.03;;;10.80;99.90;;;;;;5046590;28;20080;-67
2023/02/18 05:17:36;;;;;;;6.88;4.70;;;10.70;99.90;;;;;;5046494;28;20094;-67
2023/02/18 05:20:04;;;;;;;6.65;4.50;;;10.70;99.90;;;;;;5046694;28;20049;-66
2023/02/18 05:22:36;;;;;;;7.43;4.00;;;10.60;99.90;;;;;;5031602;28;20490;-65
2023/02/18 05:25:05;;;;;;;7.47;4.15;;;10.60;99.90;;;;;;5047737;28;20058;-66
2023/02/18 05:27:32;;;;;;;7.38;4.82;;;10.60;99.90;;;;;;5071920;28;20041;-66
2023/02/18 05:29:59;;;;;;;6.90;4.72;;;10.50;99.90;;;;;;5070856;28;20052;-65
2023/02/18 05:32:27;;;;;;;6.40;3.92;;;10.50;99.90;;;;;;5070080;28;20052;-68
2023/02/18 05:34:54;;;;;;;6.93;4.25;;;10.40;99.90;;;;;;5035621;28;20055;-66
2023/02/18 05:37:21;;;;;;;7.43;4.28;;;10.40;99.90;;;;;;5043150;28;20084;-66
2023/02/18 05:39:48;;;;;;;6.80;3.95;;;10.40;99.90;;;;;;5051016;28;20464;-67
2023/02/18 05:42:16;;;;;;;7.10;4.20;;;10.50;99.90;;;;;;5039558;28;20064;-66
2023/02/18 05:44:43;;;;;;;7.10;4.70;;;10.50;99.90;;;;;;5049619;28;20037;-67
2023/02/18 05:47:12;;;;;;;7.88;4.85;;;10.40;99.90;;;;;;5031958;28;20504;-66
2023/02/18 05:49:40;;;;;;;8.45;4.57;;;10.40;99.90;;;;;;5033876;28;20124;-67
2023/02/18 05:52:09;;;;;;;8.35;4.32;;;10.40;99.90;;;;;;5033348;28;20547;-66
2023/02/18 05:54:36;;;;;;;7.03;4.25;;;10.40;99.90;;;;;;5040554;28;20073;-68
2023/02/18 05:57:04;;;;;;;7.70;4.50;;;10.40;99.90;;;;;;5051169;28;20539;-67
2023/02/18 05:59:31;;;;;;;6.18;4.28;;;10.40;99.90;;;;;;5050544;28;20124;-67
2023/02/18 06:01:59;;;;;;;7.70;4.10;;;10.40;99.90;;;;;;5036715;28;20037;-66
2023/02/18 06:04:26;;;;;;;7.30;4.30;;;10.50;99.90;;;;;;5030453;28;20490;-67
2023/02/18 06:06:54;;;;;;;6.82;4.25;;;10.50;99.90;;;;;;5032692;28;20076;-66
2023/02/18 06:09:21;;;;;;;7.57;4.70;;;10.50;99.90;;;;;;5033077;28;20049;-67
2023/02/18 06:11:48;;;;;;;6.28;4.35;;;10.60;99.90;;;;;;5033553;28;20044;-68
2023/02/18 06:14:16;;;;;;;8.55;4.45;;;10.60;99.90;;;;;;5048177;28;20053;-67
2023/02/18 06:16:43;;;;;;;6.40;4.32;;;10.60;99.90;;;;;;5032255;28;20048;-67
2023/02/18 06:19:10;;;;;;;7.68;5.07;;;10.60;99.90;;;;;;5047945;28;20132;-67
2023/02/18 06:21:38;;;;;;;7.80;5.10;;;10.70;99.90;;;;;;5030705;28;20067;-67
2023/02/18 06:24:05;;;;;;;7.75;4.72;;;10.70;99.90;;;;;;5033232;28;20048;-66
2023/02/18 06:26:33;;;;;;;8.07;5.50;;;10.70;99.90;;;;;;5046482;28;20427;-66
2023/02/18 06:29:00;;;;;;;6.95;5.07;;;10.70;99.90;;;;;;5051899;28;20037;-67
2023/02/18 06:31:28;;;;;;;7.13;5.05;;;10.70;99.90;;;;;;5052524;28;20040;-68
2023/02/18 06:33:55;;;;;;;8.85;6.10;;;10.70;99.90;;;;;;5052541;28;20130;-67
2023/02/18 06:36:22;;;;;;;7.07;4.85;;;10.70;99.90;;;;;;5033226;28;20042;-68
2023/02/18 06:38:50;;;;;;;8.85;5.75;;;10.70;99.90;;;;;;5031932;28;20128;-69
2023/02/18 06:41:17;;;;;;;7.53;5.50;;;10.80;99.90;;;;;;5030719;28;20040;-68
2023/02/18 06:43:45;;;;;;;8.43;5.13;;;10.80;99.90;;;;;;5031816;28;20084;-66
2023/02/18 06:46:12;;;;;;;7.22;4.90;;;10.80;99.90;;;;;;5032736;28;20033;-67
2023/02/18 06:48:39;;;;;;;9.07;5.38;;;10.80;99.90;;;;;;5033418;28;20088;-65
2023/02/18 06:51:07;;;;;;;7.53;5.32;;;10.90;99.90;;;;;;5032608;28;20136;-67
2023/02/18 06:53:34;;;;;;;8.55;5.93;;;10.90;99.90;;;;;;5047656;28;20045;-69
2023/02/18 06:56:01;;;;;;;9.85;6.60;;;10.90;99.90;;;;;;5051889;28;20103;-70
2023/02/18 06:58:29;;;;;;;7.18;5.28;;;10.90;99.90;;;;;;5051046;28;20045;-67
2023/02/18 07:00:56;;;;;;;9.77;6.25;;;11.00;99.90;;;;;;5039254;28;20170;-67
2023/02/18 07:03:23;;;;;;;9.77;6.15;;;11.00;99.90;;;;;;5051681;28;20037;-68
2023/02/18 07:05:50;;;;;;;9.50;6.55;;;11.00;99.90;;;;;;5035756;28;20484;-68
2023/02/18 07:08:18;;;;;;;10.48;6.85;;;11.10;99.90;;;;;;5031119;28;20506;-65
2023/02/18 07:10:46;;;;;;;9.27;6.75;;;11.10;99.90;;;;;;5041907;28;20065;-67
2023/02/18 07:13:13;;;;;;;11.45;7.32;;;11.00;99.90;;;;;;5046204;28;20102;-66
2023/02/18 07:15:41;;;;;;;11.10;7.55;;;11.00;99.90;;;;;;5046791;28;20403;-65
2023/02/18 07:18:08;;;;;;;9.90;6.90;;;11.00;99.90;;;;;;5049023;28;20045;-66
2023/02/18 07:20:36;;;;;;;9.85;7.22;;;11.10;99.90;;;;;;5060886;28;20033;-65
2023/02/18 07:23:03;;;;;;;10.00;7.35;;;11.00;99.90;;;;;;5037225;28;20041;-66
2023/02/18 07:25:30;;;;;;;15.13;8.73;;;11.00;99.90;;;;;;5039028;28;20045;-67
2023/02/18 07:27:57;;;;;;;10.90;8.13;;;11.10;99.90;;;;;;5072027;28;20387;-67
2023/02/18 07:30:25;;;;;;;11.50;8.57;;;11.20;99.90;;;;;;5052181;28;20075;-66
2023/02/18 07:32:52;;;;;;;13.52;7.35;;;11.20;99.90;;;;;;5047917;28;20055;-67
2023/02/18 07:35:20;;;;;;;12.52;8.82;;;11.20;99.90;;;;;;5051738;28;20490;-66
2023/02/18 07:37:48;;;;;;;11.00;7.53;;;11.30;99.90;;;;;;5051556;28;20047;-66
2023/02/18 07:40:19;;;;;;;12.63;8.30;;;11.20;99.90;;;;;;5037624;28;20037;-67
2023/02/18 07:42:46;;;;;;;13.07;8.40;;;11.30;99.90;;;;;;5044604;28;20061;-67
2023/02/18 07:45:14;;;;;;;12.13;8.05;;;11.30;99.90;;;;;;5044688;28;20491;-67
2023/02/18 07:47:41;;;;;;;11.00;8.20;;;11.30;99.90;;;;;;5051344;28;20522;-65
2023/02/18 07:50:09;;;;;;;10.68;8.00;;;11.40;99.90;;;;;;5039553;28;20419;-65
2023/02/18 07:52:37;;;;;;;12.68;8.23;;;11.40;99.90;;;;;;5048238;28;20076;-65
2023/02/18 07:55:04;;;;;;;12.32;8.95;;;11.40;99.90;;;;;;5033175;28;20603;-65
2023/02/18 07:57:31;;;;;;;11.68;8.05;;;11.50;99.90;;;;;;5048605;28;20545;-65
2023/02/18 07:59:59;;;;;;;11.32;8.13;;;11.50;99.90;;;;;;5042674;28;20503;-66
2023/02/18 08:02:26;;;;;;;12.30;8.68;;;11.60;99.90;;;;;;5050578;28;20584;-66
2023/02/18 08:04:53;;;;;;;11.35;8.85;;;11.60;99.90;;;;;;5048850;28;20037;-66
2023/02/18 08:07:22;;;;;;;11.63;8.15;;;11.70;99.90;;;;;;5050213;28;20045;-67
2023/02/18 08:09:49;;;;;;;12.35;8.30;;;11.70;99.90;;;;;;5045743;28;20041;-67
2023/02/18 08:12:17;;;;;;;11.40;7.60;;;11.60;99.90;;;;;;5046037;28;20148;-66
2023/02/18 08:14:44;;;;;;;10.35;7.63;;;11.70;99.90;;;;;;5038843;28;20053;-67
2023/02/18 08:17:11;;;;;;;12.38;8.00;;;11.60;99.90;;;;;;5028421;28;20037;-67
2023/02/18 08:19:39;;;;;;;11.07;7.85;;;11.60;99.90;;;;;;5035996;28;20483;-67
2023/02/18 08:22:06;;;;;;;10.18;7.32;;;11.70;99.90;;;;;;5063780;28;20033;-67
2023/02/18 08:24:33;;;;;;;10.80;7.63;;;11.80;99.90;;;;;;5048958;28;20491;-66
2023/02/18 08:27:00;;;;;;;11.30;8.02;;;11.60;99.90;;;;;;5030044;28;20033;-66
2023/02/18 08:29:28;;;;;;;10.40;7.30;;;11.70;99.90;;;;;;5028259;28;20132;-67
2023/02/18 08:31:58;;;;;;;9.98;7.38;;;11.90;99.90;;;;;;5029190;28;20570;-67
2023/02/18 08:34:26;;;;;;;9.93;7.32;;;11.90;99.90;;;;;;5047948;28;20052;-67
2023/02/18 08:36:53;;;;;;;8.73;6.63;;;12.00;99.90;;;;;;5043484;28;20046;-67
2023/02/18 08:39:20;;;;;;;10.38;7.40;;;12.00;99.90;;;;;;5020291;28;20044;-69
2023/02/18 08:41:47;;;;;;;8.57;6.28;;;12.00;99.90;;;;;;5045268;28;20033;-66
2023/02/18 08:44:15;;;;;;;9.23;6.25;;;12.10;99.90;;;;;;5027491;28;20064;-66
2023/02/18 08:46:42;;;;;;;8.15;6.45;;;12.10;99.90;;;;;;5028520;28;20492;-68
2023/02/18 08:49:09;;;;;;;9.55;6.65;;;12.20;99.90;;;;;;5029300;28;20380;-67
2023/02/18 08:51:36;;;;;;;9.07;6.45;;;12.30;99.90;;;;;;5028459;28;20056;-67
2023/02/18 08:54:04;;;;;;;9.10;6.45;;;12.30;99.90;;;;;;5031230;28;20068;-66
2023/02/18 08:56:32;;;;;;;10.18;6.68;;;12.30;99.90;;;;;;5045712;28;20041;-68
2023/02/18 08:58:59;;;;;;;10.23;6.25;;;12.30;99.90;;;;;;5047381;28;20405;-66
2023/02/18 09:01:26;;;;;;;8.65;6.28;;;12.30;99.90;;;;;;5048909;28;20041;-66
2023/02/18 09:03:54;;;;;;;8.05;5.97;;;12.30;99.90;;;;;;5048029;28;20041;-66
2023/02/18 09:06:21;;;;;;;7.77;5.43;;;12.50;99.90;;;;;;5007462;28;1196548;-65
2023/02/18 09:08:49;;;;;;;10.77;6.40;;;12.50;99.90;;;;;;5048763;28;20033;-65
2023/02/18 09:11:17;;;;;;;9.38;5.82;;;12.50;99.90;;;;;;5050161;28;20092;-68
2023/02/18 09:13:45;;;;;;;6.88;5.13;;;12.50;99.90;;;;;;5045120;28;20045;-67
2023/02/18 09:16:17;;;;;;;8.75;5.60;;;12.60;99.90;;;;;;5030363;28;20505;-67
2023/02/18 09:18:45;;;;;;;7.15;4.88;;;12.60;99.90;;;;;;5043273;28;20041;-67
2023/02/18 09:21:15;;;;;;;7.93;5.57;;;12.60;99.90;;;;;;5029198;28;20446;-67
2023/02/18 09:23:42;;;;;;;6.63;4.72;;;12.70;99.90;;;;;;5028716;28;20037;-67
2023/02/18 09:26:14;;;;;;;7.40;4.88;;;12.60;99.90;;;;;;5029183;28;20487;-67
2023/02/18 09:28:41;;;;;;;6.13;4.45;;;12.60;99.90;;;;;;5018390;28;20051;-66
2023/02/18 09:31:12;;;;;;;8.45;4.93;;;12.60;99.90;;;;;;5029203;28;20056;-67
2023/02/18 09:33:43;;;;;;;6.47;4.87;;;12.60;99.90;;;;;;5035359;28;20045;-65
2023/02/18 09:36:12;;;;;;;;;;;12.60;99.90;;;;;;5046831;28;20041;-66
2023/02/18 09:38:39;;;;;;;7.15;4.75;;;12.50;99.90;;;;;;5038687;28;19944;-65
2023/02/18 09:41:14;;;;;;;9.68;4.60;;;12.50;99.90;;;;;;5027174;28;20046;-65
2023/02/18 09:43:47;;;;;;;6.68;4.47;;;12.50;99.90;;;;;;5025744;28;20033;-64
2023/02/18 09:46:26;;;;;;;7.47;4.47;;;12.60;99.90;;;;;;5027844;28;20155;-64
2023/02/18 09:48:55;;;;;;;7.40;4.50;;;12.60;99.90;;;;;;5027953;28;20412;-66
2023/02/18 09:51:22;;;;;;;6.18;3.95;;;12.60;99.90;;;;;;5029401;28;20476;-65
2023/02/18 09:53:49;;;;;;;6.43;4.50;;;12.70;99.90;;;;;;5028395;28;20050;-66
2023/02/18 09:56:22;;;;;;;5.68;3.80;;;12.70;99.90;;;;;;5036626;28;20049;-65
2023/02/18 09:58:50;;;;;;;5.85;3.83;;;12.80;99.90;;;;;;5046528;28;20051;-66
2023/02/18 10:01:28;;;;;;;6.00;4.03;;;12.80;99.90;;;;;;5026591;28;20052;-66
2023/02/18 10:04:06;;;;;;;6.72;4.22;;;12.80;99.90;;;;;;5028389;28;20079;-66
2023/02/18 10:06:34;;;;;;;6.50;4.30;;;12.70;99.90;;;;;;5036793;28;20048;-67
2023/02/18 10:09:09;;;;;;;5.93;3.80;;;12.80;99.90;;;;;;5050101;28;20045;-67
2023/02/18 10:11:40;;;;;;;5.43;3.83;;;12.70;99.90;;;;;;5031981;28;20132;-67
2023/02/18 10:14:13;;;;;;;7.57;3.88;;;12.80;99.90;;;;;;5036585;28;20597;-66
2023/02/18 10:16:43;;;;;;;10.00;4.47;;;12.80;99.90;;;;;;5053375;28;20155;-67
2023/02/18 10:19:31;;;;;;;6.30;3.90;;;12.80;99.90;;;;;;5049076;28;20040;-66
2023/02/18 10:22:01;;;;;;;5.70;3.80;;;12.80;99.90;;;;;;5033200;28;20037;-67
2023/02/18 10:24:38;;;;;;;6.15;3.95;;;12.70;99.90;;;;;;5031515;28;20060;-65
2023/02/18 10:27:07;;;;;;;5.70;3.38;;;12.60;99.90;;;;;;5045584;28;20143;-66
2023/02/18 10:29:35;;;;;;;6.38;4.05;;;12.70;99.90;;;;;;5051783;28;20061;-66
2023/02/18 10:32:06;;;;;;;7.78;4.07;;;12.60;99.90;;;;;;5044365;28;20044;-66
2023/02/18 10:34:44;;;;;;;5.72;3.58;;;12.60;99.90;;;;;;5032396;28;20104;-66
2023/02/18 10:37:47;;;;;;;5.90;3.95;;;12.80;99.90;;;;;;5031515;28;20049;-66
2023/02/18 10:40:32;;;;;;;5.88;3.92;;;12.80;99.90;;;;;;5032779;28;20041;-64
2023/02/18 10:43:02;;;;;;;6.47;3.70;;;13.10;99.90;;;;;;5031577;28;20047;-64
2023/02/18 10:45:54;;;;;;;5.97;3.70;;;13.10;99.90;;;;;;5048728;28;20485;-66
2023/02/18 10:48:46;;;;;;;4.85;3.55;;;13.30;99.90;;;;;;5050318;28;20463;-67
2023/02/18 10:51:15;;;;;;;;;;;13.20;99.90;;;;;;5050798;28;20064;-68
2023/02/18 10:53:44;;;;;;;8.50;4.07;;;13.20;99.90;;;;;;5049449;28;20058;-67
2023/02/18 10:56:47;;;;;;;5.95;3.95;;;13.10;99.90;;;;;;5034584;28;20487;-66
2023/02/18 10:59:24;;;;;;;6.85;3.95;;;13.10;99.90;;;;;;5040996;28;20426;-68
2023/02/18 11:02:11;;;;;;;6.90;4.13;;;13.10;99.90;;;;;;5049214;28;20059;-68
2023/02/18 11:04:40;;;;;;;5.95;3.83;;;13.20;99.90;;;;;;5030691;28;20507;-66
2023/02/18 11:07:32;;;;;;;6.43;4.10;;;13.20;99.90;;;;;;5048337;28;20610;-66
2023/02/18 11:10:17;;;;;;;6.40;3.60;;;13.10;99.90;;;;;;5051093;28;20520;-65
2023/02/18 11:12:49;;;;;;;7.40;4.38;;;13.10;99.90;;;;;;5030689;28;20038;-66
2023/02/18 11:15:16;;;;;;;;;;;13.10;99.90;;;;;;5038945;28;20045;-69
2023/02/18 11:17:50;;;;;;;9.35;4.18;;;13.10;99.90;;;;;;5031779;28;19921;-65
2023/02/18 11:20:23;;;;;;;6.85;3.92;;;13.10;99.90;;;;;;5027406;28;20045;-66
2023/02/18 11:22:55;;;;;;;5.47;3.90;;;13.10;99.90;;;;;;5031032;28;20106;-69
2023/02/18 11:25:31;;;;;;;;;;;13.10;99.90;;;;;;5037165;28;20033;-67
2023/02/18 11:28:24;;;;;;;6.50;4.50;;;13.10;99.90;;;;;;5070720;28;20363;-68
2023/02/18 11:30:59;;;;;;;6.05;4.10;;;13.20;99.90;;;;;;5036979;28;20087;-68
2023/02/18 11:33:40;;;;;;;5.95;4.03;;;13.10;99.90;;;;;;5039851;28;20052;-65
2023/02/18 11:36:23;;;;;;;8.13;4.13;;;13.10;99.90;;;;;;5045402;28;20049;-68
2023/02/18 11:39:39;;;;;;;8.40;4.07;;;13.10;99.90;;;;;;5029967;28;20046;-67
2023/02/18 11:42:07;;;;;;;5.68;3.85;;;13.10;99.90;;;;;;5028578;28;20203;-68
2023/02/18 11:44:41;;;;;;;6.63;4.00;;;13.10;99.90;;;;;;5040856;28;20068;-72
2023/02/18 11:47:12;;;;;;;6.03;4.22;;;13.10;99.90;;;;;;5051432;28;20052;-66
2023/02/18 11:49:42;;;;;;;9.00;4.22;;;13.20;99.90;;;;;;5048217;28;20053;-64
2023/02/18 11:52:09;;;;;;;5.88;3.78;;;13.20;99.90;;;;;;5048524;28;20127;-66
2023/02/18 11:54:37;;;;;;;7.78;4.30;;;13.20;99.90;;;;;;5049384;28;20071;-69
2023/02/18 11:57:09;;;;;;;8.77;3.80;;;13.20;99.90;;;;;;5050577;28;20072;-68
2023/02/18 11:59:39;;;;;;;6.05;3.88;;;13.20;99.90;;;;;;5047153;28;20227;-65
2023/02/18 12:02:09;;;;;;;6.07;3.80;;;13.20;99.90;;;;;;5027900;28;20047;-65
2023/02/18 12:04:46;;;;;;;5.43;3.22;;;13.20;99.90;;;;;;5030398;28;20579;-66
2023/02/18 12:07:44;;;;;;;6.97;3.53;;;13.20;99.90;;;;;;5039729;28;20041;-66
2023/02/18 12:10:39;;;;;;;7.30;3.63;;;13.30;99.90;;;;;;5050252;28;20134;-66
2023/02/18 12:13:17;;;;;;;7.78;3.60;;;13.30;99.90;;;;;;5032961;28;20460;-68
2023/02/18 12:16:12;;;;;;;5.70;3.80;;;13.20;99.90;;;;;;5046339;28;20049;-69
2023/02/18 12:18:55;;;;;;;7.22;4.53;;;13.20;99.90;;;;;;5043745;28;20073;-66
2023/02/18 12:21:40;;;;;;;8.25;3.53;;;13.20;99.90;;;;;;5044660;28;20137;-66
2023/02/18 12:24:43;;;;;;;9.90;4.00;;;13.20;99.90;;;;;;5050251;28;20153;-66
2023/02/18 12:27:13;;;;;;;5.45;3.58;;;13.10;99.90;;;;;;5038691;28;20136;-66
2023/02/18 12:29:44;;;;;;;6.38;4.00;;;13.10;99.90;;;;;;5056395;28;20116;-67
2023/02/18 12:32:11;;;;;;;7.25;4.78;;;13.10;99.90;;;;;;5047253;28;20052;-67
2023/02/18 12:35:09;;;;;;;6.10;4.07;;;13.10;99.90;;;;;;5054901;28;20697;-68
2023/02/18 12:38:11;;;;;;;6.47;4.72;;;13.10;99.90;;;;;;5042326;28;20153;-66
2023/02/18 12:41:06;;;;;;;5.82;3.70;;;13.10;99.90;;;;;;5048871;28;20057;-67
2023/02/18 12:43:53;;;;;;;6.38;4.15;;;13.20;99.90;;;;;;5050062;28;20070;-68
2023/02/18 12:46:22;;;;;;;7.50;3.97;;;13.20;99.90;;;;;;5043301;28;20043;-67
2023/02/18 12:49:04;;;;;;;8.23;3.90;;;13.30;99.90;;;;;;5049917;28;20522;-66
2023/02/18 12:51:46;;;;;;;;;;;13.30;99.90;;;;;;5035936;28;20503;-67
2023/02/18 12:54:37;;;;;;;6.75;3.80;;;13.30;99.90;;;;;;5049390;28;19920;-66
2023/02/18 12:57:23;;;;;;;4.63;3.22;;;13.30;99.90;;;;;;5043653;28;20045;-67
2023/02/18 13:00:03;;;;;;;6.82;3.25;;;13.40;99.90;;;;;;5041192;28;20067;-65
2023/02/18 13:02:30;;;;;;;5.30;3.42;;;13.50;99.90;;;;;;5044997;28;20501;-65
2023/02/18 13:05:25;;;;;;;5.82;3.58;;;13.50;99.90;;;;;;5029346;28;20033;-66
2023/02/18 13:08:50;;;;;;;5.60;3.63;;;13.50;99.90;;;;;;5029339;28;20116;-67
2023/02/18 13:11:43;;;;;;;6.95;3.58;;;13.50;99.90;;;;;;5008132;28;20076;-66
2023/02/18 13:14:19;;;;;;;5.47;3.58;;;13.40;99.90;;;;;;5007020;28;20563;-68
2023/02/18 13:16:51;;;;;;;5.18;3.10;;;13.40;99.90;;;;;;5011591;28;20500;-68